createdAt,value
2018-02-27T00:00:09.425Z,0.00
2018-02-27T00:01:09.408Z,0.00
2018-02-27T00:02:09.384Z,0.00
2018-02-27T00:03:09.355Z,0.00
2018-02-27T00:04:09.332Z,0.00
2018-02-27T00:05:09.312Z,0.00
2018-02-27T00:06:09.283Z,0.00
2018-02-27T00:07:09.262Z,0.00
2018-02-27T00:08:09.237Z,0.00
2018-02-27T00:09:09.218Z,0.00
2018-02-27T00:10:09.189Z,0.00
2018-02-27T00:11:09.166Z,0.00
2018-02-27T00:12:09.151Z,0.00
2018-02-27T00:13:09.117Z,0.00
2018-02-27T00:14:09.096Z,0.00
2018-02-27T00:15:09.077Z,0.00
2018-02-27T00:16:09.048Z,0.00
2018-02-27T00:17:09.024Z,0.00
2018-02-27T00:18:08.999Z,0.00
2018-02-27T00:19:08.983Z,0.00
2018-02-27T00:20:08.960Z,0.00
2018-02-27T00:21:08.943Z,0.00
2018-02-27T00:22:08.907Z,0.00
2018-02-27T00:23:08.888Z,0.00
2018-02-27T00:24:08.862Z,0.00
2018-02-27T00:25:08.834Z,0.00
2018-02-27T00:26:08.812Z,0.00
2018-02-27T00:27:08.795Z,0.00
2018-02-27T00:28:08.768Z,0.00
2018-02-27T00:29:08.754Z,0.00
2018-02-27T00:30:08.718Z,0.00
2018-02-27T00:31:08.696Z,0.00
2018-02-27T00:32:08.673Z,0.00
2018-02-27T00:33:08.651Z,0.00
2018-02-27T00:34:08.629Z,0.00
2018-02-27T00:35:08.602Z,0.00
2018-02-27T00:36:08.585Z,0.00
2018-02-27T00:37:08.555Z,0.00
2018-02-27T00:38:08.532Z,0.00
2018-02-27T00:39:08.514Z,0.00
2018-02-27T00:40:08.484Z,0.00
2018-02-27T00:41:08.460Z,0.00
2018-02-27T00:42:08.441Z,0.00
2018-02-27T00:43:08.411Z,0.00
2018-02-27T00:44:08.391Z,0.00
2018-02-27T00:45:08.366Z,0.00
2018-02-27T00:46:08.342Z,0.00
2018-02-27T00:47:08.336Z,0.00
2018-02-27T00:48:08.304Z,0.00
2018-02-27T00:49:08.279Z,0.00
2018-02-27T00:50:08.250Z,0.00
2018-02-27T00:51:08.232Z,0.00
2018-02-27T00:52:08.204Z,0.00
2018-02-27T00:53:08.180Z,0.00
2018-02-27T00:54:08.162Z,0.00
2018-02-27T00:55:08.134Z,0.00
2018-02-27T00:56:08.111Z,0.00
2018-02-27T00:57:08.088Z,0.00
2018-02-27T00:58:08.064Z,0.00
2018-02-27T00:59:08.042Z,0.00
2018-02-27T01:00:08.020Z,0.00
2018-02-27T01:01:07.993Z,0.00
2018-02-27T01:02:08.011Z,0.00
2018-02-27T01:03:07.947Z,0.00
2018-02-27T01:04:07.924Z,0.00
2018-02-27T01:05:07.901Z,0.00
2018-02-27T01:06:07.884Z,0.00
2018-02-27T01:07:07.856Z,0.00
2018-02-27T01:08:07.840Z,0.00
2018-02-27T01:09:07.813Z,0.00
2018-02-27T01:10:07.785Z,0.00
2018-02-27T01:11:07.761Z,0.00
2018-02-27T01:12:07.738Z,0.00
2018-02-27T01:13:07.715Z,0.00
2018-02-27T01:14:07.693Z,0.00
2018-02-27T01:15:07.669Z,0.00
2018-02-27T01:16:07.651Z,0.00
2018-02-27T01:17:07.624Z,0.00
2018-02-27T01:18:07.604Z,0.00
2018-02-27T01:19:07.576Z,0.00
2018-02-27T01:20:07.552Z,0.00
2018-02-27T01:21:07.534Z,0.00
2018-02-27T01:22:07.505Z,0.00
2018-02-27T01:23:07.482Z,0.00
2018-02-27T01:24:07.465Z,0.00
2018-02-27T01:25:07.442Z,0.00
2018-02-27T01:26:07.420Z,0.00
2018-02-27T01:27:07.395Z,0.00
2018-02-27T01:28:07.367Z,0.00
2018-02-27T01:29:07.345Z,0.00
2018-02-27T01:30:07.320Z,0.00
2018-02-27T01:31:07.299Z,0.00
2018-02-27T01:32:07.275Z,0.00
2018-02-27T01:33:07.252Z,0.00
2018-02-27T01:34:07.234Z,0.00
2018-02-27T01:35:07.204Z,0.00
2018-02-27T01:36:07.188Z,0.00
2018-02-27T01:37:07.157Z,0.00
2018-02-27T01:38:07.139Z,0.00
2018-02-27T01:39:07.111Z,0.00
2018-02-27T01:40:07.090Z,0.00
2018-02-27T01:41:07.070Z,0.00
2018-02-27T01:42:07.048Z,0.00
2018-02-27T01:43:07.019Z,0.00
2018-02-27T01:44:06.997Z,0.00
2018-02-27T01:45:06.971Z,0.00
2018-02-27T01:46:06.949Z,0.00
2018-02-27T01:47:06.926Z,0.00
2018-02-27T01:48:06.900Z,0.00
2018-02-27T01:49:06.878Z,0.00
2018-02-27T01:50:06.865Z,0.00
2018-02-27T01:51:06.835Z,0.00
2018-02-27T01:52:06.807Z,0.00
2018-02-27T01:53:06.788Z,0.00
2018-02-27T01:54:06.762Z,0.00
2018-02-27T01:55:06.737Z,0.00
2018-02-27T01:56:06.717Z,0.00
2018-02-27T01:57:06.688Z,0.00
2018-02-27T01:58:06.667Z,0.00
2018-02-27T01:59:06.647Z,0.00
2018-02-27T02:00:06.617Z,0.00
2018-02-27T02:01:06.600Z,0.00
2018-02-27T02:02:06.574Z,0.00
2018-02-27T02:03:06.546Z,0.00
2018-02-27T02:04:06.526Z,0.00
2018-02-27T02:05:06.506Z,0.00
2018-02-27T02:06:06.482Z,0.00
2018-02-27T02:07:06.452Z,0.00
2018-02-27T02:08:06.434Z,0.00
2018-02-27T02:09:06.407Z,0.00
2018-02-27T02:10:06.380Z,0.00
2018-02-27T02:11:06.356Z,0.00
2018-02-27T02:12:06.334Z,0.00
2018-02-27T02:13:06.315Z,0.00
2018-02-27T02:14:06.291Z,0.00
2018-02-27T02:15:06.268Z,0.00
2018-02-27T02:16:06.243Z,0.00
2018-02-27T02:17:06.212Z,0.00
2018-02-27T02:18:06.194Z,0.00
2018-02-27T02:19:06.164Z,0.00
2018-02-27T02:20:06.141Z,0.00
2018-02-27T02:21:06.121Z,0.00
2018-02-27T02:22:06.102Z,0.00
2018-02-27T02:23:06.070Z,0.00
2018-02-27T02:24:06.043Z,0.00
2018-02-27T02:25:06.018Z,0.00
2018-02-27T02:26:05.998Z,0.00
2018-02-27T02:27:05.976Z,0.00
2018-02-27T02:28:05.950Z,0.00
2018-02-27T02:29:05.919Z,0.00
2018-02-27T02:30:05.902Z,0.00
2018-02-27T02:31:05.871Z,0.00
2018-02-27T02:32:05.849Z,0.00
2018-02-27T02:33:05.823Z,0.00
2018-02-27T02:34:05.801Z,0.00
2018-02-27T02:35:05.786Z,0.00
2018-02-27T02:36:05.761Z,0.00
2018-02-27T02:37:05.727Z,0.00
2018-02-27T02:38:05.734Z,0.00
2018-02-27T02:39:05.684Z,0.00
2018-02-27T02:40:05.654Z,0.00
2018-02-27T02:41:05.632Z,0.00
2018-02-27T02:42:05.604Z,0.00
2018-02-27T02:43:05.633Z,0.00
2018-02-27T02:44:05.561Z,0.00
2018-02-27T02:45:05.530Z,0.00
2018-02-27T02:46:05.507Z,0.00
2018-02-27T02:47:05.483Z,0.00
2018-02-27T02:48:05.463Z,0.00
2018-02-27T02:49:05.440Z,0.00
2018-02-27T02:50:05.408Z,0.00
2018-02-27T02:51:05.387Z,0.00
2018-02-27T02:52:05.364Z,0.00
2018-02-27T02:53:05.340Z,0.00
2018-02-27T02:54:05.310Z,0.00
2018-02-27T02:55:05.293Z,0.00
2018-02-27T02:56:05.262Z,0.00
2018-02-27T02:57:05.239Z,0.00
2018-02-27T02:58:05.218Z,0.00
2018-02-27T02:59:05.194Z,0.00
2018-02-27T03:00:05.165Z,0.00
2018-02-27T03:01:05.140Z,0.00
2018-02-27T03:02:05.117Z,0.00
2018-02-27T03:03:05.090Z,0.00
2018-02-27T03:04:05.073Z,0.00
2018-02-27T03:05:05.042Z,0.00
2018-02-27T03:06:05.017Z,0.00
2018-02-27T03:07:04.998Z,0.00
2018-02-27T03:08:04.969Z,0.00
2018-02-27T03:09:04.951Z,0.00
2018-02-27T03:10:04.930Z,0.00
2018-02-27T03:11:04.902Z,0.00
2018-02-27T03:12:04.875Z,0.00
2018-02-27T03:13:04.845Z,0.00
2018-02-27T03:14:04.823Z,0.00
2018-02-27T03:15:04.811Z,0.00
2018-02-27T03:16:04.778Z,0.00
2018-02-27T03:17:04.750Z,0.00
2018-02-27T03:18:04.727Z,0.00
2018-02-27T03:19:04.702Z,0.00
2018-02-27T03:20:04.684Z,0.00
2018-02-27T03:21:04.653Z,0.00
2018-02-27T03:22:04.636Z,0.00
2018-02-27T03:23:04.609Z,0.00
2018-02-27T03:24:04.583Z,0.00
2018-02-27T03:25:04.562Z,0.00
2018-02-27T03:26:04.535Z,0.00
2018-02-27T03:27:04.510Z,0.00
2018-02-27T03:28:04.492Z,0.00
2018-02-27T03:29:04.468Z,0.00
2018-02-27T03:30:04.446Z,0.00
2018-02-27T03:31:04.418Z,0.00
2018-02-27T03:32:04.397Z,0.00
2018-02-27T03:33:04.365Z,0.00
2018-02-27T03:34:04.344Z,0.00
2018-02-27T03:35:04.325Z,0.00
2018-02-27T03:36:04.295Z,0.00
2018-02-27T03:37:04.270Z,0.00
2018-02-27T03:38:04.246Z,0.00
2018-02-27T03:39:04.229Z,0.00
2018-02-27T03:40:04.202Z,0.00
2018-02-27T03:41:04.174Z,0.00
2018-02-27T03:42:04.150Z,0.00
2018-02-27T03:43:04.130Z,0.00
2018-02-27T03:44:04.109Z,0.00
2018-02-27T03:45:04.080Z,0.00
2018-02-27T03:46:04.055Z,0.00
2018-02-27T03:47:04.032Z,0.00
2018-02-27T03:48:04.013Z,0.00
2018-02-27T03:49:03.985Z,0.00
2018-02-27T03:50:03.961Z,0.00
2018-02-27T03:51:03.936Z,0.00
2018-02-27T03:52:03.921Z,0.00
2018-02-27T03:53:03.891Z,0.00
2018-02-27T03:54:03.867Z,0.00
2018-02-27T03:55:03.844Z,0.00
2018-02-27T03:56:03.821Z,0.00
2018-02-27T03:57:03.795Z,0.00
2018-02-27T03:58:03.776Z,0.00
2018-02-27T03:59:03.750Z,0.00
2018-02-27T04:00:03.722Z,0.00
2018-02-27T04:01:03.700Z,0.00
2018-02-27T04:02:03.683Z,0.00
2018-02-27T04:03:03.658Z,0.00
2018-02-27T04:04:03.630Z,0.00
2018-02-27T04:05:03.611Z,0.00
2018-02-27T04:06:03.588Z,0.00
2018-02-27T04:07:03.558Z,0.00
2018-02-27T04:08:03.536Z,0.00
2018-02-27T04:09:03.519Z,0.00
2018-02-27T04:10:03.490Z,0.00
2018-02-27T04:11:03.465Z,0.00
2018-02-27T04:12:03.440Z,0.00
2018-02-27T04:13:03.422Z,0.00
2018-02-27T04:14:03.393Z,0.00
2018-02-27T04:15:03.374Z,0.00
2018-02-27T04:16:03.347Z,0.00
2018-02-27T04:17:03.323Z,0.00
2018-02-27T04:18:03.298Z,0.00
2018-02-27T04:19:03.273Z,0.00
2018-02-27T04:20:03.253Z,0.00
2018-02-27T04:21:03.226Z,0.00
2018-02-27T04:22:03.208Z,0.00
2018-02-27T04:23:03.179Z,0.00
2018-02-27T04:24:03.158Z,0.00
2018-02-27T04:25:03.143Z,0.00
2018-02-27T04:26:03.114Z,0.00
2018-02-27T04:27:03.099Z,0.00
2018-02-27T04:28:03.065Z,0.00
2018-02-27T04:29:03.039Z,0.00
2018-02-27T04:30:03.014Z,0.00
2018-02-27T04:31:02.994Z,0.00
2018-02-27T04:32:02.969Z,0.00
2018-02-27T04:33:02.945Z,0.00
2018-02-27T04:34:02.925Z,0.00
2018-02-27T04:35:02.910Z,0.00
2018-02-27T04:36:02.875Z,0.00
2018-02-27T04:37:02.851Z,0.00
2018-02-27T04:38:02.827Z,0.00
2018-02-27T04:39:02.808Z,0.00
2018-02-27T04:40:02.778Z,0.00
2018-02-27T04:41:02.760Z,0.00
2018-02-27T04:42:02.735Z,0.00
2018-02-27T04:43:02.715Z,0.00
2018-02-27T04:44:02.687Z,0.00
2018-02-27T04:45:02.660Z,0.00
2018-02-27T04:46:02.637Z,0.00
2018-02-27T04:47:02.615Z,0.00
2018-02-27T04:48:02.597Z,0.00
2018-02-27T04:49:02.567Z,0.00
2018-02-27T04:50:02.542Z,0.00
2018-02-27T04:51:02.524Z,0.00
2018-02-27T04:52:02.505Z,0.00
2018-02-27T04:53:02.474Z,0.00
2018-02-27T04:54:02.450Z,0.00
2018-02-27T04:55:02.425Z,0.00
2018-02-27T04:56:02.410Z,0.00
2018-02-27T04:57:02.378Z,0.00
2018-02-27T04:58:02.353Z,0.00
2018-02-27T04:59:02.331Z,0.00
2018-02-27T05:00:02.314Z,0.00
2018-02-27T05:01:02.284Z,0.00
2018-02-27T05:02:02.259Z,0.00
2018-02-27T05:03:02.243Z,0.00
2018-02-27T05:04:02.219Z,0.00
2018-02-27T05:05:02.196Z,0.00
2018-02-27T05:06:02.167Z,0.00
2018-02-27T05:07:02.141Z,0.00
2018-02-27T05:08:02.121Z,0.00
2018-02-27T05:09:02.099Z,0.00
2018-02-27T05:10:02.072Z,0.00
2018-02-27T05:11:02.049Z,0.00
2018-02-27T05:12:02.026Z,0.00
2018-02-27T05:13:02.001Z,0.00
2018-02-27T05:14:01.979Z,0.00
2018-02-27T05:15:01.955Z,0.00
2018-02-27T05:16:01.931Z,0.00
2018-02-27T05:17:01.907Z,0.00
2018-02-27T05:18:01.884Z,0.00
2018-02-27T05:19:01.868Z,0.00
2018-02-27T05:20:01.837Z,0.00
2018-02-27T05:21:01.814Z,0.00
2018-02-27T05:22:01.792Z,0.00
2018-02-27T05:23:01.766Z,0.00
2018-02-27T05:24:01.750Z,0.00
2018-02-27T05:25:01.727Z,0.00
2018-02-27T05:26:01.704Z,0.00
2018-02-27T05:27:01.676Z,0.00
2018-02-27T05:28:01.655Z,0.00
2018-02-27T05:29:01.627Z,0.00
2018-02-27T05:30:01.604Z,0.00
2018-02-27T05:31:01.585Z,0.00
2018-02-27T05:32:01.557Z,0.00
2018-02-27T05:33:01.533Z,0.00
2018-02-27T05:34:01.509Z,0.00
2018-02-27T05:35:01.488Z,0.00
2018-02-27T05:36:01.478Z,0.00
2018-02-27T05:37:01.439Z,0.00
2018-02-27T05:38:01.416Z,0.00
2018-02-27T05:39:01.393Z,0.00
2018-02-27T05:40:01.372Z,0.00
2018-02-27T05:41:01.351Z,0.00
2018-02-27T05:42:01.321Z,0.00
2018-02-27T05:43:01.306Z,0.00
2018-02-27T05:44:01.285Z,0.00
2018-02-27T05:45:01.254Z,0.00
2018-02-27T05:46:01.230Z,0.00
2018-02-27T05:47:01.212Z,0.00
2018-02-27T05:48:01.183Z,0.00
2018-02-27T05:49:01.165Z,0.00
2018-02-27T05:50:01.133Z,0.00
2018-02-27T05:51:01.115Z,0.00
2018-02-27T05:52:01.087Z,0.00
2018-02-27T05:53:01.065Z,0.00
2018-02-27T05:54:01.047Z,0.00
2018-02-27T05:55:01.017Z,0.00
2018-02-27T05:56:00.994Z,0.00
2018-02-27T05:57:00.975Z,0.00
2018-02-27T05:58:00.948Z,0.00
2018-02-27T05:59:00.926Z,0.00
2018-02-27T06:00:00.903Z,0.00
2018-02-27T06:01:00.883Z,0.00
2018-02-27T06:02:00.854Z,0.00
2018-02-27T06:03:00.833Z,0.00
2018-02-27T06:04:00.807Z,0.00
2018-02-27T06:05:00.785Z,0.00
2018-02-27T06:06:00.757Z,0.00
2018-02-27T06:07:00.737Z,0.00
2018-02-27T06:08:00.713Z,0.00
2018-02-27T06:09:00.688Z,0.00
2018-02-27T06:10:00.669Z,0.00
2018-02-27T06:11:00.649Z,0.00
2018-02-27T06:12:00.619Z,0.00
2018-02-27T06:13:00.601Z,0.00
2018-02-27T06:14:00.572Z,0.00
2018-02-27T06:15:00.549Z,0.00
2018-02-27T06:16:00.523Z,0.00
2018-02-27T06:17:00.501Z,0.00
2018-02-27T06:18:00.477Z,0.00
2018-02-27T06:19:00.455Z,0.00
2018-02-27T06:20:00.430Z,0.00
2018-02-27T06:21:00.406Z,0.00
2018-02-27T06:22:00.382Z,0.00
2018-02-27T06:23:00.362Z,0.00
2018-02-27T06:24:00.341Z,5.63
2018-02-27T06:25:00.313Z,5.63
2018-02-27T06:26:00.288Z,5.63
2018-02-27T06:27:00.265Z,5.63
2018-02-27T06:28:00.243Z,5.63
2018-02-27T06:29:00.219Z,5.63
2018-02-27T06:30:00.195Z,5.63
2018-02-27T06:31:00.183Z,5.63
2018-02-27T06:32:00.155Z,5.63
2018-02-27T06:33:00.125Z,5.63
2018-02-27T06:34:00.102Z,5.63
2018-02-27T06:35:00.090Z,5.63
2018-02-27T06:36:00.058Z,5.63
2018-02-27T06:37:00.043Z,5.63
2018-02-27T06:38:00.018Z,5.63
2018-02-27T06:38:59.985Z,11.25
2018-02-27T06:39:59.967Z,11.25
2018-02-27T06:40:59.951Z,11.25
2018-02-27T06:41:59.922Z,11.25
2018-02-27T06:42:59.891Z,11.25
2018-02-27T06:43:59.868Z,11.25
2018-02-27T06:44:59.845Z,11.25
2018-02-27T06:45:59.820Z,11.25
2018-02-27T06:46:59.801Z,11.25
2018-02-27T06:47:59.775Z,16.88
2018-02-27T06:48:59.759Z,16.88
2018-02-27T06:49:59.730Z,16.88
2018-02-27T06:50:59.711Z,16.88
2018-02-27T06:51:59.681Z,16.88
2018-02-27T06:52:59.659Z,16.88
2018-02-27T06:53:59.638Z,16.88
2018-02-27T06:54:59.614Z,16.88
2018-02-27T06:55:59.595Z,16.88
2018-02-27T06:56:59.563Z,16.88
2018-02-27T06:57:59.545Z,22.50
2018-02-27T06:58:59.522Z,22.50
2018-02-27T06:59:59.508Z,22.50
2018-02-27T07:00:59.478Z,22.50
2018-02-27T07:01:59.495Z,22.50
2018-02-27T07:02:59.424Z,22.50
2018-02-27T07:03:59.402Z,22.50
2018-02-27T07:04:59.377Z,22.50
2018-02-27T07:05:59.362Z,22.50
2018-02-27T07:06:59.333Z,22.50
2018-02-27T07:07:59.311Z,22.50
2018-02-27T07:08:59.284Z,22.50
2018-02-27T07:09:59.269Z,22.50
2018-02-27T07:10:59.239Z,22.50
2018-02-27T07:11:59.217Z,22.50
2018-02-27T07:12:59.190Z,22.50
2018-02-27T07:13:59.170Z,22.50
2018-02-27T07:14:59.146Z,22.50
2018-02-27T07:15:59.139Z,22.50
2018-02-27T07:16:59.110Z,28.13
2018-02-27T07:17:59.089Z,28.13
2018-02-27T07:18:59.054Z,28.13
2018-02-27T07:19:59.031Z,28.13
2018-02-27T07:20:59.007Z,28.13
2018-02-27T07:21:58.988Z,28.13
2018-02-27T07:22:58.961Z,28.13
2018-02-27T07:23:58.937Z,28.13
2018-02-27T07:24:58.920Z,28.13
2018-02-27T07:25:58.897Z,28.13
2018-02-27T07:26:58.869Z,33.75
2018-02-27T07:27:58.850Z,33.75
2018-02-27T07:28:58.820Z,33.75
2018-02-27T07:29:58.797Z,33.75
2018-02-27T07:30:58.775Z,33.75
2018-02-27T07:31:58.752Z,33.75
2018-02-27T07:32:58.734Z,39.38
2018-02-27T07:33:58.705Z,39.38
2018-02-27T07:34:58.681Z,39.38
2018-02-27T07:35:58.662Z,39.38
2018-02-27T07:36:58.637Z,39.38
2018-02-27T07:37:58.613Z,39.38
2018-02-27T07:38:58.590Z,39.38
2018-02-27T07:39:58.566Z,45.00
2018-02-27T07:40:58.551Z,45.00
2018-02-27T07:41:58.520Z,45.00
2018-02-27T07:42:58.496Z,45.00
2018-02-27T07:43:58.473Z,45.00
2018-02-27T07:44:58.456Z,45.00
2018-02-27T07:45:58.434Z,45.00
2018-02-27T07:46:58.404Z,45.00
2018-02-27T07:47:58.380Z,45.00
2018-02-27T07:48:58.356Z,45.00
2018-02-27T07:49:58.339Z,45.00
2018-02-27T07:50:58.311Z,45.00
2018-02-27T07:51:58.296Z,45.00
2018-02-27T07:52:58.266Z,45.00
2018-02-27T07:53:58.241Z,50.63
2018-02-27T07:54:58.237Z,50.63
2018-02-27T07:55:58.196Z,50.63
2018-02-27T07:56:58.174Z,50.63
2018-02-27T07:57:58.154Z,50.63
2018-02-27T07:58:58.126Z,50.63
2018-02-27T07:59:58.104Z,50.63
2018-02-27T08:00:58.082Z,50.63
2018-02-27T08:01:58.064Z,50.63
2018-02-27T08:02:58.048Z,50.63
2018-02-27T08:03:58.055Z,50.63
2018-02-27T08:04:57.990Z,50.63
2018-02-27T08:05:57.966Z,50.63
2018-02-27T08:06:57.942Z,56.25
2018-02-27T08:07:57.921Z,56.25
2018-02-27T08:08:57.902Z,56.25
2018-02-27T08:09:57.876Z,56.25
2018-02-27T08:10:57.851Z,61.88
2018-02-27T08:11:57.834Z,61.88
2018-02-27T08:12:57.808Z,61.88
2018-02-27T08:13:57.783Z,61.88
2018-02-27T08:14:57.758Z,61.88
2018-02-27T08:15:57.737Z,61.88
2018-02-27T08:16:57.712Z,61.88
2018-02-27T08:17:57.693Z,61.88
2018-02-27T08:18:57.676Z,61.88
2018-02-27T08:19:57.646Z,67.50
2018-02-27T08:20:57.624Z,67.50
2018-02-27T08:21:57.625Z,67.50
2018-02-27T08:22:57.589Z,67.50
2018-02-27T08:23:57.560Z,67.50
2018-02-27T08:24:57.537Z,67.50
2018-02-27T08:25:57.509Z,73.13
2018-02-27T08:26:57.484Z,73.13
2018-02-27T08:27:57.461Z,73.13
2018-02-27T08:28:57.438Z,73.13
2018-02-27T08:29:57.416Z,73.13
2018-02-27T08:30:57.394Z,73.13
2018-02-27T08:31:57.371Z,73.13
2018-02-27T08:32:57.349Z,73.13
2018-02-27T08:33:57.331Z,73.13
2018-02-27T08:34:57.307Z,73.13
2018-02-27T08:35:57.283Z,73.13
2018-02-27T08:36:57.259Z,73.13
2018-02-27T08:37:57.240Z,73.13
2018-02-27T08:38:57.212Z,73.13
2018-02-27T08:39:57.194Z,73.13
2018-02-27T08:40:57.165Z,73.13
2018-02-27T08:41:57.140Z,73.13
2018-02-27T08:42:57.119Z,73.13
2018-02-27T08:43:57.097Z,73.13
2018-02-27T08:44:57.073Z,73.13
2018-02-27T08:45:57.053Z,73.13
2018-02-27T08:46:57.029Z,73.13
2018-02-27T08:47:57.004Z,73.13
2018-02-27T08:48:56.984Z,73.13
2018-02-27T08:49:56.962Z,73.13
2018-02-27T08:50:57.000Z,73.13
2018-02-27T08:51:56.921Z,73.13
2018-02-27T08:52:56.900Z,67.50
2018-02-27T08:53:56.875Z,67.50
2018-02-27T08:54:56.849Z,61.88
2018-02-27T08:55:56.826Z,67.50
2018-02-27T08:56:56.807Z,67.50
2018-02-27T08:57:56.785Z,61.88
2018-02-27T08:58:56.761Z,67.50
2018-02-27T08:59:56.735Z,61.88
2018-02-27T09:00:56.713Z,61.88
2018-02-27T09:01:56.694Z,61.88
2018-02-27T09:02:56.668Z,61.88
2018-02-27T09:03:56.646Z,61.88
2018-02-27T09:04:56.627Z,67.50
2018-02-27T09:05:56.603Z,67.50
2018-02-27T09:06:56.584Z,61.88
2018-02-27T09:07:56.561Z,61.88
2018-02-27T09:08:56.540Z,61.88
2018-02-27T09:09:56.514Z,61.88
2018-02-27T09:10:56.489Z,67.50
2018-02-27T09:11:56.474Z,67.50
2018-02-27T09:12:56.445Z,67.50
2018-02-27T09:13:56.421Z,67.50
2018-02-27T09:14:56.397Z,67.50
2018-02-27T09:15:56.375Z,67.50
2018-02-27T09:16:56.358Z,67.50
2018-02-27T09:17:56.335Z,67.50
2018-02-27T09:18:56.308Z,67.50
2018-02-27T09:19:56.285Z,67.50
2018-02-27T09:20:56.262Z,67.50
2018-02-27T09:21:56.239Z,67.50
2018-02-27T09:22:56.215Z,67.50
2018-02-27T09:23:56.194Z,67.50
2018-02-27T09:24:56.175Z,67.50
2018-02-27T09:25:56.149Z,73.13
2018-02-27T09:26:56.126Z,73.13
2018-02-27T09:27:56.105Z,73.13
2018-02-27T09:28:56.087Z,73.13
2018-02-27T09:29:56.059Z,73.13
2018-02-27T09:30:56.036Z,78.75
2018-02-27T09:31:56.013Z,78.75
2018-02-27T09:32:55.989Z,78.75
2018-02-27T09:33:55.966Z,78.75
2018-02-27T09:34:55.986Z,78.75
2018-02-27T09:35:55.921Z,78.75
2018-02-27T09:36:55.905Z,78.75
2018-02-27T09:37:55.878Z,78.75
2018-02-27T09:38:55.854Z,78.75
2018-02-27T09:39:55.837Z,78.75
2018-02-27T09:40:55.813Z,78.75
2018-02-27T09:41:55.786Z,78.75
2018-02-27T09:42:55.764Z,78.75
2018-02-27T09:43:55.744Z,78.75
2018-02-27T09:44:55.717Z,78.75
2018-02-27T09:45:55.700Z,78.75
2018-02-27T09:46:55.673Z,78.75
2018-02-27T09:47:55.655Z,78.75
2018-02-27T09:48:55.629Z,78.75
2018-02-27T09:49:55.606Z,78.75
2018-02-27T09:50:55.583Z,78.75
2018-02-27T09:51:55.567Z,78.75
2018-02-27T09:52:55.537Z,78.75
2018-02-27T09:53:55.517Z,78.75
2018-02-27T09:54:55.491Z,78.75
2018-02-27T09:55:55.476Z,73.13
2018-02-27T09:56:55.448Z,73.13
2018-02-27T09:57:55.431Z,73.13
2018-02-27T09:58:55.400Z,78.75
2018-02-27T09:59:55.386Z,78.75
2018-02-27T10:00:55.364Z,73.13
2018-02-27T10:01:55.335Z,73.13
2018-02-27T10:02:55.313Z,73.13
2018-02-27T10:03:55.289Z,78.75
2018-02-27T10:04:55.267Z,78.75
2018-02-27T10:05:55.244Z,78.75
2018-02-27T10:06:55.220Z,78.75
2018-02-27T10:07:55.200Z,78.75
2018-02-27T10:08:55.183Z,78.75
2018-02-27T10:09:55.159Z,78.75
2018-02-27T10:10:55.133Z,78.75
2018-02-27T10:11:55.110Z,78.75
2018-02-27T10:12:55.090Z,78.75
2018-02-27T10:13:55.062Z,84.38
2018-02-27T10:14:55.041Z,84.38
2018-02-27T10:15:55.017Z,78.75
2018-02-27T10:16:54.996Z,78.75
2018-02-27T10:17:54.982Z,78.75
2018-02-27T10:18:54.952Z,78.75
2018-02-27T10:19:54.935Z,78.75
2018-02-27T10:20:54.903Z,78.75
2018-02-27T10:21:54.888Z,78.75
2018-02-27T10:22:54.863Z,78.75
2018-02-27T10:23:54.837Z,78.75
2018-02-27T10:24:54.816Z,78.75
2018-02-27T10:25:54.792Z,84.38
2018-02-27T10:26:54.775Z,84.38
2018-02-27T10:27:54.751Z,84.38
2018-02-27T10:28:54.726Z,84.38
2018-02-27T10:29:54.704Z,84.38
2018-02-27T10:30:54.688Z,84.38
2018-02-27T10:31:54.662Z,84.38
2018-02-27T10:32:54.636Z,84.38
2018-02-27T10:33:54.618Z,78.75
2018-02-27T10:34:54.593Z,78.75
2018-02-27T10:35:54.587Z,78.75
2018-02-27T10:36:54.554Z,84.38
2018-02-27T10:37:54.527Z,78.75
2018-02-27T10:38:54.508Z,78.75
2018-02-27T10:39:54.482Z,78.75
2018-02-27T10:40:54.459Z,78.75
2018-02-27T10:41:54.437Z,78.75
2018-02-27T10:42:54.417Z,78.75
2018-02-27T10:43:54.401Z,73.13
2018-02-27T10:44:54.374Z,73.13
2018-02-27T10:45:54.363Z,73.13
2018-02-27T10:46:54.334Z,73.13
2018-02-27T10:47:54.313Z,73.13
2018-02-27T10:48:54.285Z,78.75
2018-02-27T10:49:54.263Z,78.75
2018-02-27T10:50:54.242Z,78.75
2018-02-27T10:51:54.219Z,84.38
2018-02-27T10:52:54.202Z,78.75
2018-02-27T10:53:54.180Z,78.75
2018-02-27T10:54:54.181Z,78.75
2018-02-27T10:55:54.134Z,84.38
2018-02-27T10:56:54.111Z,84.38
2018-02-27T10:57:54.094Z,84.38
2018-02-27T10:58:54.069Z,84.38
2018-02-27T10:59:54.047Z,95.63
2018-02-27T11:00:54.022Z,95.63
2018-02-27T11:01:54.051Z,90.00
2018-02-27T11:02:53.978Z,90.00
2018-02-27T11:03:53.956Z,90.00
2018-02-27T11:04:53.935Z,90.00
2018-02-27T11:05:53.914Z,84.38
2018-02-27T11:06:53.892Z,95.63
2018-02-27T11:07:53.871Z,90.00
2018-02-27T11:08:53.848Z,90.00
2018-02-27T11:09:53.831Z,84.38
2018-02-27T11:10:53.803Z,95.63
2018-02-27T11:11:53.784Z,84.38
2018-02-27T11:12:53.760Z,95.63
2018-02-27T11:13:53.745Z,90.00
2018-02-27T11:14:53.715Z,84.38
2018-02-27T11:15:53.695Z,95.63
2018-02-27T11:16:53.669Z,101.25
2018-02-27T11:17:53.649Z,95.63
2018-02-27T11:18:53.631Z,95.63
2018-02-27T11:19:53.653Z,95.63
2018-02-27T11:20:53.584Z,84.38
2018-02-27T11:21:53.566Z,78.75
2018-02-27T11:22:53.545Z,73.13
2018-02-27T11:23:53.520Z,78.75
2018-02-27T11:24:53.498Z,73.13
2018-02-27T11:25:53.477Z,78.75
2018-02-27T11:26:53.458Z,73.13
2018-02-27T11:27:53.432Z,67.50
2018-02-27T11:28:53.414Z,67.50
2018-02-27T11:29:53.388Z,73.13
2018-02-27T11:30:53.368Z,73.13
2018-02-27T11:31:53.346Z,78.75
2018-02-27T11:32:53.325Z,78.75
2018-02-27T11:33:53.303Z,78.75
2018-02-27T11:34:53.283Z,78.75
2018-02-27T11:35:53.265Z,78.75
2018-02-27T11:36:53.237Z,78.75
2018-02-27T11:37:53.216Z,78.75
2018-02-27T11:38:53.196Z,84.38
2018-02-27T11:39:53.174Z,84.38
2018-02-27T11:40:53.153Z,84.38
2018-02-27T11:41:53.140Z,84.38
2018-02-27T11:42:53.149Z,84.38
2018-02-27T11:43:53.088Z,84.38
2018-02-27T11:44:53.064Z,95.63
2018-02-27T11:45:53.047Z,84.38
2018-02-27T11:46:53.028Z,84.38
2018-02-27T11:47:53.000Z,84.38
2018-02-27T11:48:52.979Z,84.38
2018-02-27T11:49:52.957Z,90.00
2018-02-27T11:50:52.937Z,84.38
2018-02-27T11:51:52.915Z,84.38
2018-02-27T11:52:52.895Z,84.38
2018-02-27T11:53:52.872Z,84.38
2018-02-27T11:54:52.851Z,84.38
2018-02-27T11:55:52.831Z,84.38
2018-02-27T11:56:52.807Z,78.75
2018-02-27T11:57:52.785Z,78.75
2018-02-27T11:58:52.769Z,78.75
2018-02-27T11:59:52.751Z,84.38
2018-02-27T12:00:52.720Z,84.38
2018-02-27T12:01:52.699Z,84.38
2018-02-27T12:02:52.678Z,78.75
2018-02-27T12:03:52.663Z,78.75
2018-02-27T12:04:52.636Z,78.75
2018-02-27T12:05:52.618Z,78.75
2018-02-27T12:06:52.600Z,78.75
2018-02-27T12:07:52.575Z,78.75
2018-02-27T12:08:52.552Z,78.75
2018-02-27T12:09:52.537Z,78.75
2018-02-27T12:10:52.514Z,78.75
2018-02-27T12:11:52.496Z,78.75
2018-02-27T12:12:52.476Z,84.38
2018-02-27T12:13:52.448Z,84.38
2018-02-27T12:14:52.434Z,84.38
2018-02-27T12:15:52.408Z,84.38
2018-02-27T12:16:52.385Z,84.38
2018-02-27T12:17:52.365Z,84.38
2018-02-27T12:18:52.350Z,84.38
2018-02-27T12:19:52.327Z,84.38
2018-02-27T12:20:52.309Z,84.38
2018-02-27T12:21:52.287Z,84.38
2018-02-27T12:22:52.260Z,90.00
2018-02-27T12:23:52.240Z,90.00
2018-02-27T12:24:52.217Z,90.00
2018-02-27T12:25:52.199Z,90.00
2018-02-27T12:26:52.182Z,90.00
2018-02-27T12:27:52.162Z,90.00
2018-02-27T12:28:52.136Z,90.00
2018-02-27T12:29:52.114Z,95.63
2018-02-27T12:30:52.108Z,95.63
2018-02-27T12:31:52.074Z,101.25
2018-02-27T12:32:52.057Z,106.88
2018-02-27T12:33:52.032Z,101.25
2018-02-27T12:34:52.010Z,101.25
2018-02-27T12:35:51.995Z,101.25
2018-02-27T12:36:51.967Z,101.25
2018-02-27T12:37:51.948Z,101.25
2018-02-27T12:38:51.929Z,101.25
2018-02-27T12:39:51.907Z,95.63
2018-02-27T12:40:51.891Z,90.00
2018-02-27T12:41:51.876Z,95.63
2018-02-27T12:42:51.847Z,90.00
2018-02-27T12:43:51.825Z,78.75
2018-02-27T12:44:51.806Z,84.38
2018-02-27T12:45:51.786Z,90.00
2018-02-27T12:46:51.767Z,90.00
2018-02-27T12:47:51.749Z,78.75
2018-02-27T12:48:51.724Z,78.75
2018-02-27T12:49:51.708Z,78.75
2018-02-27T12:50:51.709Z,78.75
2018-02-27T12:51:51.670Z,73.13
2018-02-27T12:52:51.757Z,73.13
2018-02-27T12:53:51.632Z,73.13
2018-02-27T12:54:51.607Z,73.13
2018-02-27T12:55:51.585Z,73.13
2018-02-27T12:56:51.566Z,78.75
2018-02-27T12:57:51.546Z,78.75
2018-02-27T12:58:51.526Z,84.38
2018-02-27T12:59:51.506Z,78.75
2018-02-27T13:00:51.485Z,78.75
2018-02-27T13:01:51.464Z,90.00
2018-02-27T13:02:51.447Z,78.75
2018-02-27T13:03:51.423Z,78.75
2018-02-27T13:04:51.407Z,78.75